sensor_id;sensor_type;location;lat;lon;timestamp;P1;durP1;ratioP1;P2;durP2;ratioP2
23814;SDS011;12088;53.078;8.720;2024-01-30T00:01:51;24.10;;;15.17;;
23814;SDS011;12088;53.078;8.720;2024-01-30T00:04:17;20.33;;;14.33;;
23814;SDS011;12088;53.078;8.720;2024-01-30T00:06:43;23.57;;;15.13;;
23814;SDS011;12088;53.078;8.720;2024-01-30T00:09:09;19.77;;;14.73;;
23814;SDS011;12088;53.078;8.720;2024-01-30T00:11:36;24.77;;;14.80;;
23814;SDS011;12088;53.078;8.720;2024-01-30T00:14:02;22.30;;;15.00;;
23814;SDS011;12088;53.078;8.720;2024-01-30T00:16:28;24.20;;;15.40;;
23814;SDS011;12088;53.078;8.720;2024-01-30T00:18:54;21.83;;;14.57;;
23814;SDS011;12088;53.078;8.720;2024-01-30T00:21:20;22.10;;;14.27;;
23814;SDS011;12088;53.078;8.720;2024-01-30T00:23:46;23.63;;;15.33;;
23814;SDS011;12088;53.078;8.720;2024-01-30T00:26:13;21.30;;;14.53;;
23814;SDS011;12088;53.078;8.720;2024-01-30T00:28:40;24.60;;;15.37;;
23814;SDS011;12088;53.078;8.720;2024-01-30T00:31:06;23.13;;;15.53;;
23814;SDS011;12088;53.078;8.720;2024-01-30T00:33:32;22.07;;;15.43;;
23814;SDS011;12088;53.078;8.720;2024-01-30T00:35:58;22.23;;;15.77;;
23814;SDS011;12088;53.078;8.720;2024-01-30T00:38:24;22.10;;;15.33;;
23814;SDS011;12088;53.078;8.720;2024-01-30T00:40:50;20.63;;;14.40;;
23814;SDS011;12088;53.078;8.720;2024-01-30T00:43:16;22.47;;;14.47;;
23814;SDS011;12088;53.078;8.720;2024-01-30T00:45:45;21.47;;;15.00;;
23814;SDS011;12088;53.078;8.720;2024-01-30T00:48:11;23.93;;;14.27;;
23814;SDS011;12088;53.078;8.720;2024-01-30T00:50:37;22.47;;;14.27;;
23814;SDS011;12088;53.078;8.720;2024-01-30T00:53:03;22.37;;;14.97;;
23814;SDS011;12088;53.078;8.720;2024-01-30T00:55:29;20.57;;;14.13;;
23814;SDS011;12088;53.078;8.720;2024-01-30T00:57:55;20.43;;;14.23;;
23814;SDS011;12088;53.078;8.720;2024-01-30T01:00:21;19.10;;;13.10;;
23814;SDS011;12088;53.078;8.720;2024-01-30T01:02:53;20.40;;;14.00;;
23814;SDS011;12088;53.078;8.720;2024-01-30T01:05:19;23.63;;;14.70;;
23814;SDS011;12088;53.078;8.720;2024-01-30T01:07:45;19.90;;;14.00;;
23814;SDS011;12088;53.078;8.720;2024-01-30T01:10:13;21.93;;;14.40;;
23814;SDS011;12088;53.078;8.720;2024-01-30T01:12:39;21.03;;;13.20;;
23814;SDS011;12088;53.078;8.720;2024-01-30T01:15:05;21.63;;;13.97;;
23814;SDS011;12088;53.078;8.720;2024-01-30T01:17:34;19.20;;;12.97;;
23814;SDS011;12088;53.078;8.720;2024-01-30T01:20:00;21.83;;;13.90;;
23814;SDS011;12088;53.078;8.720;2024-01-30T01:22:26;19.00;;;13.33;;
23814;SDS011;12088;53.078;8.720;2024-01-30T01:24:52;19.73;;;13.53;;
23814;SDS011;12088;53.078;8.720;2024-01-30T01:27:18;17.43;;;12.33;;
23814;SDS011;12088;53.078;8.720;2024-01-30T01:29:44;18.27;;;13.40;;
23814;SDS011;12088;53.078;8.720;2024-01-30T01:32:10;22.40;;;13.33;;
23814;SDS011;12088;53.078;8.720;2024-01-30T01:34:36;18.33;;;13.50;;
23814;SDS011;12088;53.078;8.720;2024-01-30T01:37:02;19.60;;;13.93;;
23814;SDS011;12088;53.078;8.720;2024-01-30T01:39:28;18.47;;;13.30;;
23814;SDS011;12088;53.078;8.720;2024-01-30T01:41:54;19.20;;;12.73;;
23814;SDS011;12088;53.078;8.720;2024-01-30T01:44:20;19.77;;;13.13;;
23814;SDS011;12088;53.078;8.720;2024-01-30T01:46:46;18.37;;;13.10;;
23814;SDS011;12088;53.078;8.720;2024-01-30T01:49:13;19.00;;;12.83;;
23814;SDS011;12088;53.078;8.720;2024-01-30T01:51:39;19.23;;;12.37;;
23814;SDS011;12088;53.078;8.720;2024-01-30T01:54:06;17.77;;;12.90;;
23814;SDS011;12088;53.078;8.720;2024-01-30T01:56:32;16.10;;;11.93;;
23814;SDS011;12088;53.078;8.720;2024-01-30T01:59:05;18.10;;;12.90;;
23814;SDS011;12088;53.078;8.720;2024-01-30T02:01:38;19.17;;;12.93;;
23814;SDS011;12088;53.078;8.720;2024-01-30T02:04:06;17.67;;;12.53;;
23814;SDS011;12088;53.078;8.720;2024-01-30T02:06:32;17.57;;;12.43;;
23814;SDS011;12088;53.078;8.720;2024-01-30T02:08:59;18.30;;;12.97;;
23814;SDS011;12088;53.078;8.720;2024-01-30T02:11:25;18.60;;;12.60;;
23814;SDS011;12088;53.078;8.720;2024-01-30T02:13:51;21.83;;;13.10;;
23814;SDS011;12088;53.078;8.720;2024-01-30T02:16:17;21.30;;;14.03;;
23814;SDS011;12088;53.078;8.720;2024-01-30T02:18:43;16.23;;;12.17;;
23814;SDS011;12088;53.078;8.720;2024-01-30T02:21:12;19.57;;;12.47;;
23814;SDS011;12088;53.078;8.720;2024-01-30T02:23:38;19.67;;;12.87;;
23814;SDS011;12088;53.078;8.720;2024-01-30T02:26:05;16.70;;;12.00;;
23814;SDS011;12088;53.078;8.720;2024-01-30T02:28:31;18.03;;;12.80;;
23814;SDS011;12088;53.078;8.720;2024-01-30T02:30:57;19.10;;;13.30;;
23814;SDS011;12088;53.078;8.720;2024-01-30T02:33:23;19.50;;;13.37;;
23814;SDS011;12088;53.078;8.720;2024-01-30T02:35:49;20.50;;;13.80;;
23814;SDS011;12088;53.078;8.720;2024-01-30T02:38:15;19.50;;;13.57;;
23814;SDS011;12088;53.078;8.720;2024-01-30T02:40:41;21.57;;;14.33;;
23814;SDS011;12088;53.078;8.720;2024-01-30T02:43:07;18.67;;;13.57;;
23814;SDS011;12088;53.078;8.720;2024-01-30T02:45:33;22.37;;;13.70;;
23814;SDS011;12088;53.078;8.720;2024-01-30T02:47:59;19.43;;;12.70;;
23814;SDS011;12088;53.078;8.720;2024-01-30T02:50:25;20.20;;;13.00;;
23814;SDS011;12088;53.078;8.720;2024-01-30T02:52:51;19.23;;;13.47;;
23814;SDS011;12088;53.078;8.720;2024-01-30T02:55:17;19.97;;;13.30;;
23814;SDS011;12088;53.078;8.720;2024-01-30T02:57:43;20.30;;;13.73;;
23814;SDS011;12088;53.078;8.720;2024-01-30T03:00:09;22.47;;;14.10;;
23814;SDS011;12088;53.078;8.720;2024-01-30T03:02:36;17.70;;;13.17;;
23814;SDS011;12088;53.078;8.720;2024-01-30T03:05:02;18.53;;;12.93;;
23814;SDS011;12088;53.078;8.720;2024-01-30T03:07:29;23.10;;;13.60;;
23814;SDS011;12088;53.078;8.720;2024-01-30T03:09:55;17.47;;;12.83;;
23814;SDS011;12088;53.078;8.720;2024-01-30T03:12:21;18.03;;;13.73;;
23814;SDS011;12088;53.078;8.720;2024-01-30T03:14:47;20.33;;;12.70;;
23814;SDS011;12088;53.078;8.720;2024-01-30T03:17:14;19.03;;;13.50;;
23814;SDS011;12088;53.078;8.720;2024-01-30T03:19:40;23.23;;;13.93;;
23814;SDS011;12088;53.078;8.720;2024-01-30T03:22:06;23.03;;;13.97;;
23814;SDS011;12088;53.078;8.720;2024-01-30T03:24:32;21.30;;;13.73;;
23814;SDS011;12088;53.078;8.720;2024-01-30T03:26:58;20.70;;;13.40;;
23814;SDS011;12088;53.078;8.720;2024-01-30T03:29:24;20.13;;;14.27;;
23814;SDS011;12088;53.078;8.720;2024-01-30T03:31:50;19.53;;;13.57;;
23814;SDS011;12088;53.078;8.720;2024-01-30T03:34:16;21.47;;;14.20;;
23814;SDS011;12088;53.078;8.720;2024-01-30T03:36:42;20.97;;;13.77;;
23814;SDS011;12088;53.078;8.720;2024-01-30T03:39:08;19.50;;;13.23;;
23814;SDS011;12088;53.078;8.720;2024-01-30T03:41:34;18.83;;;13.50;;
23814;SDS011;12088;53.078;8.720;2024-01-30T03:44:00;19.27;;;13.30;;
23814;SDS011;12088;53.078;8.720;2024-01-30T03:46:26;22.20;;;13.30;;
23814;SDS011;12088;53.078;8.720;2024-01-30T03:48:52;20.03;;;13.63;;
23814;SDS011;12088;53.078;8.720;2024-01-30T03:51:18;21.57;;;14.47;;
23814;SDS011;12088;53.078;8.720;2024-01-30T03:53:44;21.67;;;13.67;;
23814;SDS011;12088;53.078;8.720;2024-01-30T03:56:13;21.37;;;14.40;;
23814;SDS011;12088;53.078;8.720;2024-01-30T03:58:39;20.37;;;13.83;;
23814;SDS011;12088;53.078;8.720;2024-01-30T04:01:05;22.37;;;14.30;;
23814;SDS011;12088;53.078;8.720;2024-01-30T04:03:31;19.10;;;13.50;;
23814;SDS011;12088;53.078;8.720;2024-01-30T04:05:57;21.73;;;13.90;;
23814;SDS011;12088;53.078;8.720;2024-01-30T04:08:23;19.83;;;13.53;;
23814;SDS011;12088;53.078;8.720;2024-01-30T04:10:49;20.83;;;13.13;;
23814;SDS011;12088;53.078;8.720;2024-01-30T04:13:15;19.03;;;13.43;;
23814;SDS011;12088;53.078;8.720;2024-01-30T04:15:41;17.73;;;13.30;;
23814;SDS011;12088;53.078;8.720;2024-01-30T04:18:07;21.63;;;14.43;;
23814;SDS011;12088;53.078;8.720;2024-01-30T04:20:33;25.33;;;14.43;;
23814;SDS011;12088;53.078;8.720;2024-01-30T04:22:59;24.00;;;14.00;;
23814;SDS011;12088;53.078;8.720;2024-01-30T04:25:25;20.60;;;13.47;;
23814;SDS011;12088;53.078;8.720;2024-01-30T04:27:51;22.67;;;13.97;;
23814;SDS011;12088;53.078;8.720;2024-01-30T04:30:17;22.77;;;14.57;;
23814;SDS011;12088;53.078;8.720;2024-01-30T04:32:43;20.20;;;15.07;;
23814;SDS011;12088;53.078;8.720;2024-01-30T04:35:09;19.17;;;14.50;;
23814;SDS011;12088;53.078;8.720;2024-01-30T04:37:35;22.17;;;14.67;;
23814;SDS011;12088;53.078;8.720;2024-01-30T04:40:01;18.27;;;13.53;;
23814;SDS011;12088;53.078;8.720;2024-01-30T04:42:28;19.80;;;14.40;;
23814;SDS011;12088;53.078;8.720;2024-01-30T04:44:54;21.30;;;14.20;;
23814;SDS011;12088;53.078;8.720;2024-01-30T04:47:20;20.07;;;14.40;;
23814;SDS011;12088;53.078;8.720;2024-01-30T04:49:46;18.50;;;14.43;;
23814;SDS011;12088;53.078;8.720;2024-01-30T04:52:12;21.83;;;14.67;;
23814;SDS011;12088;53.078;8.720;2024-01-30T04:54:38;23.63;;;14.63;;
23814;SDS011;12088;53.078;8.720;2024-01-30T04:57:04;19.93;;;13.73;;
23814;SDS011;12088;53.078;8.720;2024-01-30T04:59:34;21.17;;;14.20;;
23814;SDS011;12088;53.078;8.720;2024-01-30T05:02:00;22.03;;;14.30;;
23814;SDS011;12088;53.078;8.720;2024-01-30T05:04:26;19.07;;;14.07;;
23814;SDS011;12088;53.078;8.720;2024-01-30T05:06:52;23.23;;;14.47;;
23814;SDS011;12088;53.078;8.720;2024-01-30T05:09:18;23.97;;;15.07;;
23814;SDS011;12088;53.078;8.720;2024-01-30T05:11:44;22.13;;;14.83;;
23814;SDS011;12088;53.078;8.720;2024-01-30T05:14:10;23.57;;;14.57;;
23814;SDS011;12088;53.078;8.720;2024-01-30T05:16:37;24.17;;;14.57;;
23814;SDS011;12088;53.078;8.720;2024-01-30T05:19:03;21.17;;;14.87;;
23814;SDS011;12088;53.078;8.720;2024-01-30T05:21:29;22.70;;;15.90;;
23814;SDS011;12088;53.078;8.720;2024-01-30T05:23:55;21.73;;;14.80;;
23814;SDS011;12088;53.078;8.720;2024-01-30T05:26:20;24.97;;;15.57;;
23814;SDS011;12088;53.078;8.720;2024-01-30T05:28:48;21.80;;;14.73;;
23814;SDS011;12088;53.078;8.720;2024-01-30T05:31:14;20.47;;;13.90;;
23814;SDS011;12088;53.078;8.720;2024-01-30T05:33:40;21.67;;;15.03;;
23814;SDS011;12088;53.078;8.720;2024-01-30T05:36:06;22.13;;;15.00;;
23814;SDS011;12088;53.078;8.720;2024-01-30T05:38:32;22.67;;;15.07;;
23814;SDS011;12088;53.078;8.720;2024-01-30T05:40:58;22.53;;;15.33;;
23814;SDS011;12088;53.078;8.720;2024-01-30T05:43:24;22.37;;;15.37;;
23814;SDS011;12088;53.078;8.720;2024-01-30T05:45:50;22.87;;;15.50;;
23814;SDS011;12088;53.078;8.720;2024-01-30T05:48:17;21.07;;;14.70;;
23814;SDS011;12088;53.078;8.720;2024-01-30T05:50:43;25.23;;;15.43;;
23814;SDS011;12088;53.078;8.720;2024-01-30T05:53:10;24.23;;;15.27;;
23814;SDS011;12088;53.078;8.720;2024-01-30T05:55:36;23.47;;;15.50;;
23814;SDS011;12088;53.078;8.720;2024-01-30T05:58:02;23.50;;;15.10;;
23814;SDS011;12088;53.078;8.720;2024-01-30T06:00:28;22.67;;;15.37;;
23814;SDS011;12088;53.078;8.720;2024-01-30T06:02:54;25.53;;;15.33;;
23814;SDS011;12088;53.078;8.720;2024-01-30T06:05:20;23.17;;;15.47;;
23814;SDS011;12088;53.078;8.720;2024-01-30T06:07:46;23.20;;;15.23;;
23814;SDS011;12088;53.078;8.720;2024-01-30T06:10:12;23.73;;;15.77;;
23814;SDS011;12088;53.078;8.720;2024-01-30T06:12:38;22.93;;;14.97;;
23814;SDS011;12088;53.078;8.720;2024-01-30T06:15:04;26.77;;;16.03;;
23814;SDS011;12088;53.078;8.720;2024-01-30T06:17:31;21.80;;;14.67;;
23814;SDS011;12088;53.078;8.720;2024-01-30T06:19:57;24.37;;;14.90;;
23814;SDS011;12088;53.078;8.720;2024-01-30T06:22:24;23.20;;;15.07;;
23814;SDS011;12088;53.078;8.720;2024-01-30T06:24:50;21.43;;;14.73;;
23814;SDS011;12088;53.078;8.720;2024-01-30T06:27:16;23.73;;;15.60;;
23814;SDS011;12088;53.078;8.720;2024-01-30T06:29:45;25.93;;;16.00;;
23814;SDS011;12088;53.078;8.720;2024-01-30T06:32:11;24.97;;;15.90;;
23814;SDS011;12088;53.078;8.720;2024-01-30T06:34:37;24.10;;;15.43;;
23814;SDS011;12088;53.078;8.720;2024-01-30T06:37:05;22.20;;;15.27;;
23814;SDS011;12088;53.078;8.720;2024-01-30T06:39:31;22.77;;;14.67;;
23814;SDS011;12088;53.078;8.720;2024-01-30T06:41:57;25.47;;;15.13;;
23814;SDS011;12088;53.078;8.720;2024-01-30T06:44:23;22.27;;;15.00;;
23814;SDS011;12088;53.078;8.720;2024-01-30T06:46:49;28.50;;;16.17;;
23814;SDS011;12088;53.078;8.720;2024-01-30T06:49:15;25.77;;;15.47;;
23814;SDS011;12088;53.078;8.720;2024-01-30T06:51:41;22.70;;;14.97;;
23814;SDS011;12088;53.078;8.720;2024-01-30T06:54:07;28.23;;;16.13;;
23814;SDS011;12088;53.078;8.720;2024-01-30T06:56:33;22.13;;;15.17;;
23814;SDS011;12088;53.078;8.720;2024-01-30T06:58:59;26.07;;;15.67;;
23814;SDS011;12088;53.078;8.720;2024-01-30T07:01:28;22.70;;;15.77;;
23814;SDS011;12088;53.078;8.720;2024-01-30T07:03:55;23.93;;;15.60;;
23814;SDS011;12088;53.078;8.720;2024-01-30T07:06:21;26.83;;;16.73;;
23814;SDS011;12088;53.078;8.720;2024-01-30T07:08:47;25.40;;;16.57;;
23814;SDS011;12088;53.078;8.720;2024-01-30T07:11:19;28.53;;;16.67;;
23814;SDS011;12088;53.078;8.720;2024-01-30T07:13:50;21.97;;;15.53;;
23814;SDS011;12088;53.078;8.720;2024-01-30T07:16:16;27.40;;;17.13;;
23814;SDS011;12088;53.078;8.720;2024-01-30T07:18:43;29.37;;;16.93;;
23814;SDS011;12088;53.078;8.720;2024-01-30T07:21:09;24.80;;;16.67;;
23814;SDS011;12088;53.078;8.720;2024-01-30T07:23:35;26.80;;;16.13;;
23814;SDS011;12088;53.078;8.720;2024-01-30T07:26:03;29.70;;;16.63;;
23814;SDS011;12088;53.078;8.720;2024-01-30T07:28:29;28.67;;;16.67;;
23814;SDS011;12088;53.078;8.720;2024-01-30T07:30:55;27.97;;;16.30;;
23814;SDS011;12088;53.078;8.720;2024-01-30T07:33:21;28.77;;;16.07;;
23814;SDS011;12088;53.078;8.720;2024-01-30T07:35:47;25.83;;;16.87;;
23814;SDS011;12088;53.078;8.720;2024-01-30T07:38:13;24.83;;;16.70;;
23814;SDS011;12088;53.078;8.720;2024-01-30T07:40:39;25.43;;;16.80;;
23814;SDS011;12088;53.078;8.720;2024-01-30T07:43:06;26.17;;;17.27;;
23814;SDS011;12088;53.078;8.720;2024-01-30T07:45:33;30.43;;;17.57;;
23814;SDS011;12088;53.078;8.720;2024-01-30T07:47:59;25.93;;;16.47;;
23814;SDS011;12088;53.078;8.720;2024-01-30T07:50:25;25.53;;;16.53;;
23814;SDS011;12088;53.078;8.720;2024-01-30T07:52:51;26.60;;;16.87;;
23814;SDS011;12088;53.078;8.720;2024-01-30T07:55:20;23.47;;;15.43;;
23814;SDS011;12088;53.078;8.720;2024-01-30T07:57:49;26.00;;;16.60;;
23814;SDS011;12088;53.078;8.720;2024-01-30T08:00:15;26.37;;;16.80;;
23814;SDS011;12088;53.078;8.720;2024-01-30T08:02:41;26.17;;;16.30;;
23814;SDS011;12088;53.078;8.720;2024-01-30T08:05:07;23.83;;;16.17;;
23814;SDS011;12088;53.078;8.720;2024-01-30T08:07:35;25.27;;;16.33;;
23814;SDS011;12088;53.078;8.720;2024-01-30T08:10:01;23.87;;;15.70;;
23814;SDS011;12088;53.078;8.720;2024-01-30T08:12:27;26.87;;;16.90;;
23814;SDS011;12088;53.078;8.720;2024-01-30T08:14:53;23.00;;;16.30;;
23814;SDS011;12088;53.078;8.720;2024-01-30T08:17:19;23.93;;;16.03;;
23814;SDS011;12088;53.078;8.720;2024-01-30T08:19:45;23.93;;;15.53;;
23814;SDS011;12088;53.078;8.720;2024-01-30T08:22:11;22.70;;;15.67;;
23814;SDS011;12088;53.078;8.720;2024-01-30T08:24:38;23.20;;;15.87;;
23814;SDS011;12088;53.078;8.720;2024-01-30T08:27:05;24.90;;;16.87;;
23814;SDS011;12088;53.078;8.720;2024-01-30T08:29:31;22.33;;;14.83;;
23814;SDS011;12088;53.078;8.720;2024-01-30T08:31:57;21.60;;;15.00;;
23814;SDS011;12088;53.078;8.720;2024-01-30T08:34:24;24.60;;;14.43;;
23814;SDS011;12088;53.078;8.720;2024-01-30T08:36:50;22.93;;;14.37;;
23814;SDS011;12088;53.078;8.720;2024-01-30T08:39:16;23.53;;;14.93;;
23814;SDS011;12088;53.078;8.720;2024-01-30T08:41:42;23.40;;;14.30;;
23814;SDS011;12088;53.078;8.720;2024-01-30T08:44:08;21.33;;;14.90;;
23814;SDS011;12088;53.078;8.720;2024-01-30T08:46:36;23.80;;;14.40;;
23814;SDS011;12088;53.078;8.720;2024-01-30T08:49:02;22.77;;;15.50;;
23814;SDS011;12088;53.078;8.720;2024-01-30T08:51:29;25.20;;;15.33;;
23814;SDS011;12088;53.078;8.720;2024-01-30T08:53:55;26.77;;;15.07;;
23814;SDS011;12088;53.078;8.720;2024-01-30T08:56:21;18.53;;;13.13;;
23814;SDS011;12088;53.078;8.720;2024-01-30T08:58:47;22.07;;;14.80;;
23814;SDS011;12088;53.078;8.720;2024-01-30T09:01:13;22.73;;;15.47;;
23814;SDS011;12088;53.078;8.720;2024-01-30T09:03:40;22.20;;;14.03;;
23814;SDS011;12088;53.078;8.720;2024-01-30T09:06:11;23.23;;;14.07;;
23814;SDS011;12088;53.078;8.720;2024-01-30T09:08:37;21.57;;;14.50;;
23814;SDS011;12088;53.078;8.720;2024-01-30T09:11:10;24.97;;;14.53;;
23814;SDS011;12088;53.078;8.720;2024-01-30T09:13:36;20.43;;;13.90;;
23814;SDS011;12088;53.078;8.720;2024-01-30T09:16:02;20.80;;;14.00;;
23814;SDS011;12088;53.078;8.720;2024-01-30T09:18:28;20.97;;;13.37;;
23814;SDS011;12088;53.078;8.720;2024-01-30T09:20:54;21.77;;;13.73;;
23814;SDS011;12088;53.078;8.720;2024-01-30T09:23:20;21.40;;;13.77;;
23814;SDS011;12088;53.078;8.720;2024-01-30T09:25:46;19.20;;;13.67;;
23814;SDS011;12088;53.078;8.720;2024-01-30T09:28:13;23.90;;;14.27;;
23814;SDS011;12088;53.078;8.720;2024-01-30T09:30:39;22.20;;;12.80;;
23814;SDS011;12088;53.078;8.720;2024-01-30T09:33:05;20.87;;;13.00;;
23814;SDS011;12088;53.078;8.720;2024-01-30T09:35:32;19.97;;;12.80;;
23814;SDS011;12088;53.078;8.720;2024-01-30T09:37:58;19.27;;;13.10;;
23814;SDS011;12088;53.078;8.720;2024-01-30T09:40:24;20.70;;;12.43;;
23814;SDS011;12088;53.078;8.720;2024-01-30T09:42:51;20.80;;;12.63;;
23814;SDS011;12088;53.078;8.720;2024-01-30T09:45:17;21.87;;;11.80;;
23814;SDS011;12088;53.078;8.720;2024-01-30T09:47:44;17.20;;;11.93;;
23814;SDS011;12088;53.078;8.720;2024-01-30T09:50:10;19.80;;;12.20;;
23814;SDS011;12088;53.078;8.720;2024-01-30T09:52:37;18.90;;;12.17;;
23814;SDS011;12088;53.078;8.720;2024-01-30T09:55:03;20.80;;;12.17;;
23814;SDS011;12088;53.078;8.720;2024-01-30T09:57:29;17.33;;;11.10;;
23814;SDS011;12088;53.078;8.720;2024-01-30T09:59:55;20.23;;;11.83;;
23814;SDS011;12088;53.078;8.720;2024-01-30T10:02:22;18.37;;;11.63;;
23814;SDS011;12088;53.078;8.720;2024-01-30T10:04:48;20.43;;;11.77;;
23814;SDS011;12088;53.078;8.720;2024-01-30T10:07:14;16.50;;;11.63;;
23814;SDS011;12088;53.078;8.720;2024-01-30T10:09:40;16.17;;;11.13;;
23814;SDS011;12088;53.078;8.720;2024-01-30T10:12:07;17.07;;;10.97;;
23814;SDS011;12088;53.078;8.720;2024-01-30T10:14:33;16.27;;;11.27;;
23814;SDS011;12088;53.078;8.720;2024-01-30T10:16:59;16.70;;;11.40;;
23814;SDS011;12088;53.078;8.720;2024-01-30T10:19:25;16.77;;;11.43;;
23814;SDS011;12088;53.078;8.720;2024-01-30T10:21:52;16.40;;;11.77;;
23814;SDS011;12088;53.078;8.720;2024-01-30T10:24:18;15.00;;;11.03;;
23814;SDS011;12088;53.078;8.720;2024-01-30T10:26:44;16.97;;;11.70;;
23814;SDS011;12088;53.078;8.720;2024-01-30T10:29:10;20.80;;;11.27;;
23814;SDS011;12088;53.078;8.720;2024-01-30T10:31:36;19.80;;;13.00;;
23814;SDS011;12088;53.078;8.720;2024-01-30T10:34:02;14.63;;;10.87;;
23814;SDS011;12088;53.078;8.720;2024-01-30T10:36:28;15.17;;;10.90;;
23814;SDS011;12088;53.078;8.720;2024-01-30T10:38:59;17.50;;;10.67;;
23814;SDS011;12088;53.078;8.720;2024-01-30T10:41:28;15.10;;;10.00;;
23814;SDS011;12088;53.078;8.720;2024-01-30T10:44:08;14.63;;;10.07;;
23814;SDS011;12088;53.078;8.720;2024-01-30T10:46:35;13.97;;;9.77;;
23814;SDS011;12088;53.078;8.720;2024-01-30T10:49:01;18.63;;;12.43;;
23814;SDS011;12088;53.078;8.720;2024-01-30T10:51:27;31.30;;;20.80;;
23814;SDS011;12088;53.078;8.720;2024-01-30T10:53:53;20.90;;;16.93;;
23814;SDS011;12088;53.078;8.720;2024-01-30T10:56:20;22.80;;;17.17;;
23814;SDS011;12088;53.078;8.720;2024-01-30T10:58:50;26.80;;;17.93;;
23814;SDS011;12088;53.078;8.720;2024-01-30T11:01:20;25.10;;;15.73;;
23814;SDS011;12088;53.078;8.720;2024-01-30T11:03:48;18.43;;;12.97;;
23814;SDS011;12088;53.078;8.720;2024-01-30T11:06:15;18.60;;;12.50;;
23814;SDS011;12088;53.078;8.720;2024-01-30T11:08:43;26.20;;;17.00;;
23814;SDS011;12088;53.078;8.720;2024-01-30T11:11:09;21.40;;;14.13;;
23814;SDS011;12088;53.078;8.720;2024-01-30T11:13:36;23.03;;;15.67;;
23814;SDS011;12088;53.078;8.720;2024-01-30T11:16:02;16.30;;;11.63;;
23814;SDS011;12088;53.078;8.720;2024-01-30T11:18:29;13.13;;;9.20;;
23814;SDS011;12088;53.078;8.720;2024-01-30T11:20:59;17.73;;;10.53;;
23814;SDS011;12088;53.078;8.720;2024-01-30T11:23:27;13.90;;;10.13;;
23814;SDS011;12088;53.078;8.720;2024-01-30T11:25:53;14.00;;;9.73;;
23814;SDS011;12088;53.078;8.720;2024-01-30T11:28:20;12.73;;;9.30;;
23814;SDS011;12088;53.078;8.720;2024-01-30T11:30:46;15.70;;;9.50;;
23814;SDS011;12088;53.078;8.720;2024-01-30T11:33:15;13.20;;;9.17;;
23814;SDS011;12088;53.078;8.720;2024-01-30T11:35:42;13.43;;;8.90;;
23814;SDS011;12088;53.078;8.720;2024-01-30T11:38:09;14.40;;;9.07;;
23814;SDS011;12088;53.078;8.720;2024-01-30T11:40:36;16.27;;;10.23;;
23814;SDS011;12088;53.078;8.720;2024-01-30T11:43:03;13.20;;;8.73;;
23814;SDS011;12088;53.078;8.720;2024-01-30T11:45:30;14.87;;;9.93;;
23814;SDS011;12088;53.078;8.720;2024-01-30T11:47:56;13.93;;;10.23;;
23814;SDS011;12088;53.078;8.720;2024-01-30T11:50:22;13.33;;;9.57;;
23814;SDS011;12088;53.078;8.720;2024-01-30T11:52:48;13.77;;;9.03;;
23814;SDS011;12088;53.078;8.720;2024-01-30T11:55:14;12.90;;;9.07;;
23814;SDS011;12088;53.078;8.720;2024-01-30T11:57:41;13.50;;;9.77;;
23814;SDS011;12088;53.078;8.720;2024-01-30T12:00:13;14.03;;;8.97;;
23814;SDS011;12088;53.078;8.720;2024-01-30T12:02:40;12.10;;;9.13;;
23814;SDS011;12088;53.078;8.720;2024-01-30T12:05:06;16.37;;;10.23;;
23814;SDS011;12088;53.078;8.720;2024-01-30T12:07:33;13.33;;;9.47;;
23814;SDS011;12088;53.078;8.720;2024-01-30T12:09:59;14.00;;;10.00;;
23814;SDS011;12088;53.078;8.720;2024-01-30T12:12:25;16.40;;;10.80;;
23814;SDS011;12088;53.078;8.720;2024-01-30T12:14:52;16.77;;;10.63;;
23814;SDS011;12088;53.078;8.720;2024-01-30T12:19:50;20.97;;;12.23;;
23814;SDS011;12088;53.078;8.720;2024-01-30T12:22:16;16.63;;;10.60;;
23814;SDS011;12088;53.078;8.720;2024-01-30T12:24:42;16.63;;;10.27;;
23814;SDS011;12088;53.078;8.720;2024-01-30T12:27:08;17.27;;;10.30;;
23814;SDS011;12088;53.078;8.720;2024-01-30T12:29:34;18.43;;;10.73;;
23814;SDS011;12088;53.078;8.720;2024-01-30T12:32:00;15.03;;;10.23;;
23814;SDS011;12088;53.078;8.720;2024-01-30T12:34:26;19.40;;;10.60;;
23814;SDS011;12088;53.078;8.720;2024-01-30T12:36:52;16.17;;;9.70;;
23814;SDS011;12088;53.078;8.720;2024-01-30T12:39:18;16.97;;;10.73;;
23814;SDS011;12088;53.078;8.720;2024-01-30T12:41:44;16.27;;;9.60;;
23814;SDS011;12088;53.078;8.720;2024-01-30T12:44:10;15.47;;;9.90;;
23814;SDS011;12088;53.078;8.720;2024-01-30T12:46:36;17.33;;;9.70;;
23814;SDS011;12088;53.078;8.720;2024-01-30T12:49:01;16.50;;;9.27;;
23814;SDS011;12088;53.078;8.720;2024-01-30T12:51:28;14.40;;;9.40;;
23814;SDS011;12088;53.078;8.720;2024-01-30T12:53:54;17.30;;;10.30;;
23814;SDS011;12088;53.078;8.720;2024-01-30T12:56:20;16.97;;;9.60;;
23814;SDS011;12088;53.078;8.720;2024-01-30T12:58:46;16.23;;;9.80;;
23814;SDS011;12088;53.078;8.720;2024-01-30T13:01:12;12.83;;;9.37;;
23814;SDS011;12088;53.078;8.720;2024-01-30T13:03:38;19.20;;;9.90;;
23814;SDS011;12088;53.078;8.720;2024-01-30T13:06:04;15.20;;;9.43;;
23814;SDS011;12088;53.078;8.720;2024-01-30T13:08:30;15.97;;;9.93;;
23814;SDS011;12088;53.078;8.720;2024-01-30T13:10:56;17.40;;;9.53;;
23814;SDS011;12088;53.078;8.720;2024-01-30T13:13:22;16.10;;;9.67;;
23814;SDS011;12088;53.078;8.720;2024-01-30T13:15:48;12.67;;;9.00;;
23814;SDS011;12088;53.078;8.720;2024-01-30T13:18:14;16.20;;;9.40;;
23814;SDS011;12088;53.078;8.720;2024-01-30T13:20:40;15.70;;;9.70;;
23814;SDS011;12088;53.078;8.720;2024-01-30T13:23:06;15.43;;;9.43;;
23814;SDS011;12088;53.078;8.720;2024-01-30T13:25:32;14.47;;;8.87;;
23814;SDS011;12088;53.078;8.720;2024-01-30T13:27:58;17.27;;;10.07;;
23814;SDS011;12088;53.078;8.720;2024-01-30T13:30:24;15.73;;;9.57;;
23814;SDS011;12088;53.078;8.720;2024-01-30T13:32:50;14.83;;;9.00;;
23814;SDS011;12088;53.078;8.720;2024-01-30T13:35:16;14.70;;;9.70;;
23814;SDS011;12088;53.078;8.720;2024-01-30T13:37:42;16.03;;;9.63;;
23814;SDS011;12088;53.078;8.720;2024-01-30T13:40:09;17.20;;;9.77;;
23814;SDS011;12088;53.078;8.720;2024-01-30T13:42:35;15.83;;;9.73;;
23814;SDS011;12088;53.078;8.720;2024-01-30T13:45:01;16.60;;;9.93;;
23814;SDS011;12088;53.078;8.720;2024-01-30T13:47:27;16.50;;;10.03;;
23814;SDS011;12088;53.078;8.720;2024-01-30T13:49:53;16.17;;;10.23;;
23814;SDS011;12088;53.078;8.720;2024-01-30T13:52:19;15.60;;;10.07;;
23814;SDS011;12088;53.078;8.720;2024-01-30T13:54:45;19.13;;;10.63;;
23814;SDS011;12088;53.078;8.720;2024-01-30T13:57:11;15.00;;;10.13;;
23814;SDS011;12088;53.078;8.720;2024-01-30T13:59:40;16.77;;;10.87;;
23814;SDS011;12088;53.078;8.720;2024-01-30T14:02:06;14.93;;;10.37;;
23814;SDS011;12088;53.078;8.720;2024-01-30T14:04:33;19.37;;;10.47;;
23814;SDS011;12088;53.078;8.720;2024-01-30T14:06:59;15.80;;;9.93;;
23814;SDS011;12088;53.078;8.720;2024-01-30T14:09:25;16.07;;;9.67;;
23814;SDS011;12088;53.078;8.720;2024-01-30T14:12:03;17.50;;;10.73;;
23814;SDS011;12088;53.078;8.720;2024-01-30T14:14:29;20.30;;;10.93;;
23814;SDS011;12088;53.078;8.720;2024-01-30T14:16:55;17.50;;;10.77;;
23814;SDS011;12088;53.078;8.720;2024-01-30T14:19:24;16.97;;;11.20;;
23814;SDS011;12088;53.078;8.720;2024-01-30T14:21:50;16.90;;;10.50;;